createdAt,value
2022-10-13T00:00:30.759Z,3.80
2022-10-13T00:01:30.405Z,4.10
2022-10-13T00:02:30.430Z,4.40
2022-10-13T00:03:30.389Z,3.50
2022-10-13T00:04:30.417Z,3.50
2022-10-13T00:05:30.364Z,3.70
2022-10-13T00:06:30.361Z,3.10
2022-10-13T00:07:30.622Z,4.20
2022-10-13T00:08:30.331Z,3.90
2022-10-13T00:09:30.327Z,3.90
2022-10-13T00:10:30.364Z,3.30
2022-10-13T00:11:30.312Z,3.60
2022-10-13T00:12:30.319Z,4.60
2022-10-13T00:13:30.278Z,4.30
2022-10-13T00:14:30.554Z,3.70
2022-10-13T00:15:30.268Z,4.40
2022-10-13T00:16:30.286Z,4.40
2022-10-13T00:17:30.239Z,3.70
2022-10-13T00:18:30.244Z,3.80
2022-10-13T00:19:30.228Z,3.80
2022-10-13T00:20:30.216Z,4.60
2022-10-13T00:21:30.488Z,4.10
2022-10-13T00:22:30.254Z,4.30
2022-10-13T00:23:30.186Z,3.70
2022-10-13T00:24:30.174Z,4.10
2022-10-13T00:25:30.160Z,4.20
2022-10-13T00:26:30.159Z,4.50
2022-10-13T00:27:30.137Z,4.40
2022-10-13T00:28:30.487Z,5.00
2022-10-13T00:29:30.147Z,3.90
2022-10-13T00:30:30.140Z,4.20
2022-10-13T00:31:30.096Z,4.50
2022-10-13T00:32:30.105Z,5.00
2022-10-13T00:33:30.081Z,4.30
2022-10-13T00:34:30.097Z,4.30
2022-10-13T00:35:30.347Z,4.30
2022-10-13T00:36:30.039Z,4.30
2022-10-13T00:37:30.043Z,3.90
2022-10-13T00:38:30.050Z,5.40
2022-10-13T00:39:30.007Z,4.10
2022-10-13T00:40:30.046Z,4.20
2022-10-13T00:41:30.007Z,4.40
2022-10-13T00:42:30.247Z,4.30
2022-10-13T00:43:29.975Z,4.80
2022-10-13T00:44:29.944Z,4.10
2022-10-13T00:45:29.948Z,4.40
2022-10-13T00:46:29.993Z,4.50
2022-10-13T00:47:29.928Z,4.60
2022-10-13T00:48:29.918Z,5.20
2022-10-13T00:49:30.200Z,5.30
2022-10-13T00:50:29.900Z,4.30
2022-10-13T00:51:29.897Z,4.90
2022-10-13T00:52:29.898Z,4.90
2022-10-13T00:53:29.864Z,3.90
2022-10-13T00:54:29.850Z,4.20
2022-10-13T00:55:29.856Z,4.10
2022-10-13T00:56:30.103Z,4.90
2022-10-13T00:57:29.837Z,4.20
2022-10-13T00:58:29.850Z,4.60
2022-10-13T00:59:29.837Z,4.70
2022-10-13T01:00:29.818Z,4.80
2022-10-13T01:01:29.796Z,4.00
2022-10-13T01:02:29.791Z,4.00
2022-10-13T01:03:30.040Z,4.70
2022-10-13T01:04:29.780Z,4.60
2022-10-13T01:05:29.729Z,4.40
2022-10-13T01:06:30.098Z,4.80
2022-10-13T01:07:29.902Z,5.10
2022-10-13T01:08:29.701Z,4.30
2022-10-13T01:09:29.718Z,4.30
2022-10-13T01:10:30.006Z,4.70
2022-10-13T01:11:29.693Z,5.50
2022-10-13T01:12:29.672Z,5.20
2022-10-13T01:13:29.656Z,4.70
2022-10-13T01:14:29.636Z,4.50
2022-10-13T01:15:29.653Z,4.70
2022-10-13T01:16:29.649Z,4.60
2022-10-13T01:17:29.906Z,4.40
2022-10-13T01:18:29.615Z,5.50
2022-10-13T01:19:29.589Z,4.10
2022-10-13T01:20:29.588Z,4.80
2022-10-13T01:21:29.576Z,4.60
2022-10-13T01:22:29.600Z,5.20
2022-10-13T01:23:29.548Z,4.80
2022-10-13T01:24:29.839Z,4.60
2022-10-13T01:25:29.546Z,4.60
2022-10-13T01:26:29.537Z,5.00
2022-10-13T01:27:29.498Z,5.70
2022-10-13T01:28:29.585Z,4.20
2022-10-13T01:29:29.495Z,4.40
2022-10-13T01:30:29.483Z,4.60
2022-10-13T01:31:29.754Z,4.30
2022-10-13T01:32:29.460Z,3.90
2022-10-13T01:33:29.448Z,4.20
2022-10-13T01:34:29.485Z,4.60
2022-10-13T01:35:29.452Z,3.80
2022-10-13T01:36:29.403Z,3.70
2022-10-13T01:37:29.403Z,4.10
2022-10-13T01:38:29.667Z,4.50
2022-10-13T01:39:29.384Z,4.90
2022-10-13T01:40:29.393Z,3.90
2022-10-13T01:41:29.357Z,4.50
2022-10-13T01:42:29.356Z,4.70
2022-10-13T01:43:29.338Z,4.10
2022-10-13T01:44:29.331Z,4.40
2022-10-13T01:45:29.613Z,4.50
2022-10-13T01:46:29.355Z,4.50
2022-10-13T01:47:29.302Z,4.30
2022-10-13T01:48:29.282Z,3.70
2022-10-13T01:49:29.289Z,4.30
2022-10-13T01:50:29.278Z,3.70
2022-10-13T01:51:29.264Z,4.50
2022-10-13T01:52:29.595Z,4.10
2022-10-13T01:53:29.238Z,4.20
2022-10-13T01:54:29.223Z,4.30
2022-10-13T01:55:29.205Z,4.10
2022-10-13T01:56:29.206Z,4.10
2022-10-13T01:57:29.217Z,4.20
2022-10-13T01:58:29.216Z,3.70
2022-10-13T01:59:29.490Z,4.20
2022-10-13T02:00:29.228Z,3.60
2022-10-13T02:01:29.143Z,4.00
2022-10-13T02:02:29.152Z,4.90
2022-10-13T02:03:29.162Z,4.40
2022-10-13T02:04:29.145Z,4.50
2022-10-13T02:05:29.121Z,4.10
2022-10-13T02:06:29.386Z,4.60
2022-10-13T02:07:29.105Z,4.20
2022-10-13T02:08:29.101Z,4.10
2022-10-13T02:09:29.071Z,4.10
2022-10-13T02:10:29.081Z,5.10
2022-10-13T02:11:29.048Z,4.50
2022-10-13T02:12:29.030Z,5.30
2022-10-13T02:13:29.304Z,3.60
2022-10-13T02:14:29.030Z,4.70
2022-10-13T02:15:29.040Z,4.80
2022-10-13T02:16:29.016Z,4.50
2022-10-13T02:17:28.981Z,4.60
2022-10-13T02:18:28.965Z,4.40
2022-10-13T02:19:28.973Z,4.60
2022-10-13T02:20:29.226Z,4.70
2022-10-13T02:21:28.965Z,4.60
2022-10-13T02:22:29.748Z,5.30
2022-10-13T02:23:28.924Z,4.80
2022-10-13T02:24:28.934Z,4.10
2022-10-13T02:25:28.902Z,4.80
2022-10-13T02:26:28.885Z,4.20
2022-10-13T02:27:29.157Z,4.00
2022-10-13T02:28:28.915Z,4.10
2022-10-13T02:29:28.864Z,4.50
2022-10-13T02:30:28.834Z,4.70
2022-10-13T02:31:28.867Z,3.70
2022-10-13T02:32:28.831Z,4.00
2022-10-13T02:33:28.826Z,4.30
2022-10-13T02:34:29.147Z,4.90
2022-10-13T02:35:28.798Z,4.90
2022-10-13T02:36:28.778Z,5.20
2022-10-13T02:37:28.785Z,4.70
2022-10-13T02:38:28.754Z,4.60
2022-10-13T02:39:28.755Z,4.00
2022-10-13T02:40:28.788Z,4.20
2022-10-13T02:41:29.068Z,4.60
2022-10-13T02:42:28.716Z,5.10
2022-10-13T02:43:28.728Z,4.00
2022-10-13T02:44:28.704Z,4.00
2022-10-13T02:45:28.695Z,4.40
2022-10-13T02:46:28.735Z,3.70
2022-10-13T02:47:28.685Z,3.70
2022-10-13T02:48:28.940Z,4.80
2022-10-13T02:49:28.679Z,4.10
2022-10-13T02:50:28.636Z,4.10
2022-10-13T02:51:28.631Z,4.30
2022-10-13T02:52:28.640Z,4.00
2022-10-13T02:53:28.629Z,4.20
2022-10-13T02:54:28.587Z,4.70
2022-10-13T02:55:28.880Z,4.30
2022-10-13T02:56:28.577Z,5.30
2022-10-13T02:57:28.620Z,5.30
2022-10-13T02:58:28.572Z,4.00
2022-10-13T02:59:28.561Z,4.80
2022-10-13T03:00:28.588Z,4.00
2022-10-13T03:01:28.545Z,5.00
2022-10-13T03:02:28.818Z,5.00
2022-10-13T03:03:28.500Z,4.20
2022-10-13T03:04:28.532Z,4.30
2022-10-13T03:05:28.483Z,4.60
2022-10-13T03:06:28.504Z,4.60
2022-10-13T03:07:28.469Z,5.30
2022-10-13T03:08:28.443Z,4.30
2022-10-13T03:09:28.767Z,5.00
2022-10-13T03:10:28.469Z,5.20
2022-10-13T03:11:28.419Z,3.70
2022-10-13T03:12:28.417Z,4.30
2022-10-13T03:13:28.418Z,4.40
2022-10-13T03:14:28.389Z,4.70
2022-10-13T03:15:28.376Z,4.40
2022-10-13T03:16:28.671Z,4.60
2022-10-13T03:17:28.352Z,4.50
2022-10-13T03:18:28.336Z,4.40
2022-10-13T03:19:28.331Z,3.80
2022-10-13T03:20:28.343Z,4.70
2022-10-13T03:21:28.314Z,4.30
2022-10-13T03:22:28.353Z,5.00
2022-10-13T03:23:28.613Z,3.90
2022-10-13T03:24:28.300Z,4.30
2022-10-13T03:25:28.270Z,4.40
2022-10-13T03:26:28.255Z,5.10
2022-10-13T03:27:28.256Z,4.80
2022-10-13T03:28:28.333Z,4.70
2022-10-13T03:29:28.229Z,3.90
2022-10-13T03:30:28.498Z,3.90
2022-10-13T03:31:28.244Z,4.00
2022-10-13T03:32:28.244Z,5.30
2022-10-13T03:33:28.192Z,4.00
2022-10-13T03:34:28.221Z,3.80
2022-10-13T03:35:28.177Z,4.30
2022-10-13T03:36:28.157Z,3.80
2022-10-13T03:37:28.433Z,4.50
2022-10-13T03:38:28.156Z,4.10
2022-10-13T03:39:28.127Z,3.70
2022-10-13T03:40:28.183Z,4.60
2022-10-13T03:41:28.161Z,5.00
2022-10-13T03:42:28.090Z,4.40
2022-10-13T03:43:28.117Z,3.90
2022-10-13T03:44:28.354Z,4.70
2022-10-13T03:45:28.083Z,3.70
2022-10-13T03:46:28.078Z,3.90
2022-10-13T03:47:28.048Z,3.90
2022-10-13T03:48:28.025Z,4.10
2022-10-13T03:49:28.034Z,4.50
2022-10-13T03:50:28.067Z,4.70
2022-10-13T03:51:27.994Z,4.30
2022-10-13T03:52:28.018Z,4.80
2022-10-13T03:53:27.994Z,4.30
2022-10-13T03:54:27.954Z,4.00
2022-10-13T03:55:27.971Z,4.90
2022-10-13T03:56:28.237Z,4.70
2022-10-13T03:57:27.950Z,4.20
2022-10-13T03:58:27.966Z,3.80
2022-10-13T03:59:29.250Z,4.10
2022-10-13T04:00:27.909Z,5.10
2022-10-13T04:01:28.026Z,4.10
2022-10-13T04:02:27.889Z,4.20
2022-10-13T04:03:27.880Z,4.10
2022-10-13T04:04:27.890Z,4.20
2022-10-13T04:05:27.862Z,4.40
2022-10-13T04:06:27.836Z,4.40
2022-10-13T04:07:27.851Z,4.40
2022-10-13T04:08:28.130Z,4.20
2022-10-13T04:09:27.838Z,3.90
2022-10-13T04:10:27.851Z,4.00
2022-10-13T04:11:27.801Z,4.90
2022-10-13T04:12:28.131Z,4.30
2022-10-13T04:13:27.771Z,3.90
2022-10-13T04:14:27.772Z,4.40
2022-10-13T04:15:29.048Z,4.30
2022-10-13T04:16:27.795Z,4.60
2022-10-13T04:17:27.719Z,4.90
2022-10-13T04:18:27.712Z,4.40
2022-10-13T04:19:27.726Z,4.40
2022-10-13T04:20:27.694Z,5.20
2022-10-13T04:21:27.701Z,3.70
2022-10-13T04:22:28.027Z,4.70
2022-10-13T04:23:27.681Z,5.20
2022-10-13T04:24:27.678Z,4.70
2022-10-13T04:25:27.702Z,4.40
2022-10-13T04:26:27.639Z,5.00
2022-10-13T04:27:27.633Z,4.90
2022-10-13T04:28:27.660Z,4.90
2022-10-13T04:29:27.907Z,4.40
2022-10-13T04:30:27.587Z,5.00
2022-10-13T04:31:27.587Z,4.00
2022-10-13T04:32:27.572Z,4.50
2022-10-13T04:33:27.556Z,4.10
2022-10-13T04:34:27.566Z,4.60
2022-10-13T04:35:27.556Z,5.00
2022-10-13T04:36:27.818Z,4.00
2022-10-13T04:37:27.510Z,3.90
2022-10-13T04:38:27.499Z,4.00
2022-10-13T04:39:27.492Z,4.00
2022-10-13T04:40:27.533Z,4.90
2022-10-13T04:41:27.469Z,3.60
2022-10-13T04:42:27.486Z,3.90
2022-10-13T04:43:27.730Z,4.40
2022-10-13T04:44:27.432Z,4.70
2022-10-13T04:45:28.370Z,4.00
2022-10-13T04:46:27.462Z,3.90
2022-10-13T04:47:27.426Z,4.20
2022-10-13T04:48:27.393Z,4.20
2022-10-13T04:49:27.389Z,4.10
2022-10-13T04:50:27.703Z,4.40
2022-10-13T04:51:27.367Z,4.10
2022-10-13T04:52:27.426Z,4.60
2022-10-13T04:53:28.354Z,4.80
2022-10-13T04:54:27.340Z,4.60
2022-10-13T04:55:27.321Z,4.70
2022-10-13T04:56:27.317Z,4.10
2022-10-13T04:57:30.229Z,4.30
2022-10-13T04:58:27.326Z,4.30
2022-10-13T04:59:27.283Z,4.30
2022-10-13T05:00:27.344Z,4.00
2022-10-13T05:01:27.264Z,3.80
2022-10-13T05:02:27.261Z,3.70
2022-10-13T05:03:27.233Z,4.80
2022-10-13T05:04:27.587Z,4.20
2022-10-13T05:05:27.790Z,4.90
2022-10-13T05:06:27.237Z,3.50
2022-10-13T05:07:27.189Z,4.30
2022-10-13T05:08:27.205Z,4.30
2022-10-13T05:09:27.185Z,4.50
2022-10-13T05:10:31.258Z,4.20
2022-10-13T05:11:27.161Z,4.20
2022-10-13T05:12:27.175Z,4.50
2022-10-13T05:13:27.128Z,4.00
2022-10-13T05:14:27.146Z,4.00
2022-10-13T05:15:27.163Z,5.60
2022-10-13T05:16:27.217Z,4.50
2022-10-13T05:17:30.614Z,4.00
2022-10-13T05:18:27.103Z,4.10
2022-10-13T05:19:27.683Z,3.90
2022-10-13T05:20:27.062Z,4.60
2022-10-13T05:21:27.046Z,4.10
2022-10-13T05:22:27.193Z,4.10
2022-10-13T05:23:27.051Z,4.00
2022-10-13T05:24:27.343Z,3.60
2022-10-13T05:25:31.480Z,5.40
2022-10-13T05:26:27.074Z,4.10
2022-10-13T05:27:27.030Z,3.90
2022-10-13T05:28:27.091Z,4.10
2022-10-13T05:29:26.968Z,4.30
2022-10-13T05:30:26.985Z,5.20
2022-10-13T05:31:27.218Z,4.10
2022-10-13T05:32:26.955Z,4.30
2022-10-13T05:33:26.944Z,3.90
2022-10-13T05:34:26.962Z,4.20
2022-10-13T05:35:26.937Z,5.10
2022-10-13T05:36:26.901Z,4.00
2022-10-13T05:37:26.900Z,4.00
2022-10-13T05:38:27.247Z,3.60
2022-10-13T05:39:26.860Z,4.20
2022-10-13T05:40:26.883Z,4.60
2022-10-13T05:41:26.877Z,4.00
2022-10-13T05:42:26.851Z,4.60
2022-10-13T05:43:26.830Z,4.30
2022-10-13T05:44:26.853Z,4.50
2022-10-13T05:45:27.093Z,4.30
2022-10-13T05:46:26.834Z,3.70
2022-10-13T05:47:26.807Z,4.50
2022-10-13T05:48:26.781Z,4.80
2022-10-13T05:49:26.781Z,4.10
2022-10-13T05:50:26.785Z,4.20
2022-10-13T05:51:26.745Z,4.10
2022-10-13T05:52:27.053Z,4.40
2022-10-13T05:53:26.723Z,3.90
2022-10-13T05:54:26.706Z,4.70
2022-10-13T05:55:26.710Z,3.90
2022-10-13T05:56:26.681Z,3.90
2022-10-13T05:57:26.665Z,3.90
2022-10-13T05:58:26.700Z,3.60
2022-10-13T05:59:27.452Z,3.50
2022-10-13T06:00:26.672Z,5.00
2022-10-13T06:01:26.707Z,4.00
2022-10-13T06:02:26.632Z,4.50
2022-10-13T06:03:26.608Z,4.90
2022-10-13T06:04:26.654Z,4.20
2022-10-13T06:05:26.621Z,4.00
2022-10-13T06:06:30.578Z,4.40
2022-10-13T06:07:26.560Z,4.00
2022-10-13T06:08:26.593Z,4.20
2022-10-13T06:09:26.658Z,4.40
2022-10-13T06:10:26.711Z,4.30
2022-10-13T06:11:26.566Z,5.20
2022-10-13T06:12:26.793Z,3.80
2022-10-13T06:13:26.503Z,4.00
2022-10-13T06:14:26.504Z,4.30
2022-10-13T06:15:28.317Z,4.20
2022-10-13T06:16:26.540Z,4.50
2022-10-13T06:17:26.461Z,4.90
2022-10-13T06:18:26.482Z,4.70
2022-10-13T06:19:26.450Z,5.20
2022-10-13T06:20:26.449Z,5.00
2022-10-13T06:21:26.460Z,4.30
2022-10-13T06:22:26.493Z,4.70
2022-10-13T06:23:26.406Z,4.20
2022-10-13T06:24:26.670Z,4.20
2022-10-13T06:25:26.392Z,3.90
2022-10-13T06:26:26.520Z,3.90
2022-10-13T06:27:26.380Z,4.80
2022-10-13T06:28:26.468Z,5.00
2022-10-13T06:29:26.413Z,4.00
2022-10-13T06:30:26.332Z,4.70
2022-10-13T06:31:26.401Z,4.60
2022-10-13T06:32:26.314Z,4.50
2022-10-13T06:33:26.287Z,3.70
2022-10-13T06:34:26.375Z,3.60
2022-10-13T06:35:26.278Z,4.40
2022-10-13T06:36:26.300Z,4.30
2022-10-13T06:37:27.529Z,5.40
2022-10-13T06:38:26.340Z,4.10
2022-10-13T06:39:26.228Z,4.40
2022-10-13T06:40:26.258Z,4.70
2022-10-13T06:41:26.261Z,4.50
2022-10-13T06:42:26.491Z,4.70
2022-10-13T06:43:34.354Z,3.70
2022-10-13T06:44:26.261Z,4.90
2022-10-13T06:45:26.162Z,4.10
2022-10-13T06:46:26.195Z,4.40
2022-10-13T06:47:26.180Z,4.90
2022-10-13T06:48:26.148Z,4.80
2022-10-13T06:49:26.128Z,4.50
2022-10-13T06:50:26.149Z,4.40
2022-10-13T06:51:26.108Z,3.90
2022-10-13T06:52:26.182Z,3.70
2022-10-13T06:53:26.071Z,4.70
2022-10-13T06:54:26.085Z,3.70
2022-10-13T06:55:26.394Z,4.20
2022-10-13T06:56:26.093Z,3.90
2022-10-13T06:57:26.115Z,4.00
2022-10-13T06:58:26.076Z,4.90
2022-10-13T06:59:26.022Z,3.70
2022-10-13T07:00:26.094Z,4.60
2022-10-13T07:01:26.111Z,4.10
2022-10-13T07:02:26.087Z,4.10
2022-10-13T07:03:26.102Z,4.40
2022-10-13T07:04:26.016Z,4.80
2022-10-13T07:05:26.019Z,3.80
2022-10-13T07:06:26.004Z,4.60
2022-10-13T07:07:26.023Z,3.70
2022-10-13T07:08:26.246Z,4.50
2022-10-13T07:09:25.958Z,4.10
2022-10-13T07:10:26.033Z,3.80
2022-10-13T07:11:25.936Z,4.60
2022-10-13T07:12:25.903Z,4.40
2022-10-13T07:13:25.912Z,4.30
2022-10-13T07:14:25.886Z,5.50
2022-10-13T07:15:25.949Z,3.80
2022-10-13T07:16:25.905Z,3.90
2022-10-13T07:17:25.867Z,4.40
2022-10-13T07:18:25.890Z,4.30
2022-10-13T07:19:25.874Z,3.90
2022-10-13T07:20:26.140Z,3.80
2022-10-13T07:21:25.960Z,3.90
2022-10-13T07:22:26.955Z,4.50
2022-10-13T07:23:25.866Z,4.40
2022-10-13T07:24:26.458Z,4.50
2022-10-13T07:25:25.846Z,4.10
2022-10-13T07:26:25.780Z,4.60
2022-10-13T07:27:25.920Z,4.40
2022-10-13T07:28:26.234Z,4.20
2022-10-13T07:29:25.899Z,4.10
2022-10-13T07:30:25.768Z,3.70
2022-10-13T07:31:26.308Z,4.40
2022-10-13T07:32:28.129Z,3.00
2022-10-13T07:33:26.107Z,4.20
2022-10-13T07:34:25.872Z,3.00
2022-10-13T07:35:30.439Z,3.90
2022-10-13T07:36:25.671Z,3.90
2022-10-13T07:37:25.745Z,3.80
2022-10-13T07:38:25.640Z,3.50
2022-10-13T07:39:25.684Z,4.20
2022-10-13T07:40:25.792Z,3.70
2022-10-13T07:41:25.658Z,3.90
2022-10-13T07:42:25.633Z,3.40
2022-10-13T07:43:25.572Z,4.00
2022-10-13T07:44:25.584Z,3.80
2022-10-13T07:45:25.597Z,4.10
2022-10-13T07:46:25.638Z,3.60
2022-10-13T07:47:25.548Z,3.60
2022-10-13T07:48:25.547Z,3.80
2022-10-13T07:49:25.530Z,4.00
2022-10-13T07:50:25.505Z,3.80
2022-10-13T07:51:25.805Z,4.00
2022-10-13T07:52:25.601Z,3.70
2022-10-13T07:53:25.491Z,4.20
2022-10-13T07:54:27.497Z,4.10
2022-10-13T07:55:25.439Z,4.90
2022-10-13T07:56:25.539Z,4.10
2022-10-13T07:57:25.469Z,3.50
2022-10-13T07:58:25.534Z,4.20
2022-10-13T07:59:25.391Z,3.70
2022-10-13T08:00:25.463Z,4.00
2022-10-13T08:01:25.453Z,3.70
2022-10-13T08:02:25.513Z,3.70
2022-10-13T08:03:25.489Z,3.90
2022-10-13T08:04:25.434Z,3.60
2022-10-13T08:05:25.320Z,4.20
2022-10-13T08:06:25.364Z,4.00
2022-10-13T08:07:25.338Z,4.90
2022-10-13T08:08:25.309Z,3.60
2022-10-13T08:09:25.599Z,3.70
2022-10-13T08:10:25.402Z,4.30
2022-10-13T08:11:25.339Z,3.60
2022-10-13T08:12:25.281Z,3.40
2022-10-13T08:13:25.288Z,3.50
2022-10-13T08:14:25.410Z,3.00
2022-10-13T08:15:25.362Z,3.60
2022-10-13T08:16:25.594Z,3.90
2022-10-13T08:17:25.205Z,3.80
2022-10-13T08:18:25.198Z,4.00
2022-10-13T08:19:25.284Z,3.50
2022-10-13T08:20:28.883Z,3.20
2022-10-13T08:21:53.143Z,3.40
2022-10-13T08:22:28.205Z,3.40
2022-10-13T08:23:25.140Z,4.20
2022-10-13T08:24:25.169Z,3.70
2022-10-13T08:25:25.174Z,3.90
2022-10-13T08:26:25.304Z,3.90
2022-10-13T08:27:32.834Z,3.70
2022-10-13T08:28:25.263Z,3.60
2022-10-13T08:29:25.479Z,3.90
2022-10-13T08:30:25.270Z,3.50
2022-10-13T08:31:25.283Z,3.40
2022-10-13T08:32:25.130Z,3.50
2022-10-13T08:33:25.088Z,4.20
2022-10-13T08:34:25.212Z,4.10
2022-10-13T08:35:25.178Z,4.10
2022-10-13T08:36:25.297Z,3.70
2022-10-13T08:37:25.122Z,3.60
2022-10-13T08:38:25.016Z,3.30
2022-10-13T08:39:24.984Z,3.50
2022-10-13T08:40:25.065Z,3.40
2022-10-13T08:41:24.961Z,4.20
2022-10-13T08:42:25.028Z,4.50
2022-10-13T08:43:25.199Z,3.60
2022-10-13T08:45:05.836Z,3.50
2022-10-13T08:45:42.042Z,4.20
2022-10-13T08:46:24.983Z,4.30
2022-10-13T08:47:24.929Z,4.00
2022-10-13T08:48:24.887Z,3.90
2022-10-13T08:49:24.869Z,3.60
2022-10-13T08:50:25.131Z,4.30
2022-10-13T08:51:24.862Z,3.70
2022-10-13T08:52:25.042Z,4.00
2022-10-13T08:53:24.839Z,4.50
2022-10-13T08:54:24.833Z,4.10
2022-10-13T08:55:24.861Z,4.20
2022-10-13T08:56:24.819Z,3.60
2022-10-13T08:57:25.096Z,4.40
2022-10-13T08:58:24.955Z,3.90
2022-10-13T08:59:24.837Z,4.20
2022-10-13T09:00:24.827Z,4.60
2022-10-13T09:01:24.818Z,3.80
2022-10-13T09:02:24.802Z,3.80
2022-10-13T09:03:24.777Z,3.40
2022-10-13T09:04:24.837Z,3.60
2022-10-13T09:05:24.725Z,3.40
2022-10-13T09:06:24.695Z,4.20
2022-10-13T09:07:24.752Z,3.40
2022-10-13T09:08:24.711Z,3.10
2022-10-13T09:09:24.743Z,3.70
2022-10-13T09:10:25.094Z,3.80
2022-10-13T09:11:24.682Z,3.90
2022-10-13T09:12:24.643Z,3.60
2022-10-13T09:13:24.717Z,3.40
2022-10-13T09:14:24.617Z,3.40
2022-10-13T09:15:24.624Z,2.90
2022-10-13T09:16:24.713Z,3.40
2022-10-13T09:17:25.008Z,3.10
2022-10-13T09:18:24.602Z,3.40
2022-10-13T09:19:24.588Z,3.20
2022-10-13T09:20:24.591Z,3.70
2022-10-13T09:21:24.647Z,3.80
2022-10-13T09:22:24.659Z,3.40
2022-10-13T09:23:24.604Z,3.90
2022-10-13T09:24:24.855Z,3.40
2022-10-13T09:25:24.558Z,3.80
2022-10-13T09:26:24.574Z,3.50
2022-10-13T09:27:24.530Z,3.40
2022-10-13T09:28:24.709Z,3.80
2022-10-13T09:29:24.553Z,3.40
2022-10-13T09:30:24.453Z,3.40
2022-10-13T09:31:24.827Z,3.10
2022-10-13T09:32:24.499Z,3.10
2022-10-13T09:33:24.409Z,4.00
2022-10-13T09:34:24.464Z,3.50
2022-10-13T09:35:24.483Z,4.00
2022-10-13T09:36:24.413Z,3.90
2022-10-13T09:37:24.372Z,4.00
2022-10-13T09:38:24.694Z,4.50
2022-10-13T09:39:24.364Z,3.40
2022-10-13T09:40:24.500Z,3.60
2022-10-13T09:41:24.438Z,3.70
2022-10-13T09:42:24.324Z,2.90
2022-10-13T09:43:24.412Z,3.90
2022-10-13T09:44:27.063Z,3.60
2022-10-13T09:45:24.649Z,3.80
2022-10-13T09:46:24.343Z,3.50
2022-10-13T09:47:24.310Z,3.90
2022-10-13T09:48:24.317Z,3.50
2022-10-13T09:49:24.296Z,3.40
2022-10-13T09:50:24.254Z,3.60
2022-10-13T09:51:24.308Z,3.50
2022-10-13T09:52:24.301Z,3.10
2022-10-13T09:53:24.282Z,3.50
2022-10-13T09:54:24.185Z,3.40
2022-10-13T09:55:27.543Z,3.80
2022-10-13T09:56:24.223Z,3.00
2022-10-13T09:57:24.256Z,3.80
2022-10-13T09:58:24.367Z,3.20
2022-10-13T09:59:24.189Z,3.40
2022-10-13T10:00:24.195Z,3.20
2022-10-13T10:01:24.139Z,3.40
2022-10-13T10:02:26.568Z,3.70
2022-10-13T10:03:24.149Z,3.60
2022-10-13T10:04:24.296Z,3.50
2022-10-13T10:05:24.163Z,3.40
2022-10-13T10:06:26.990Z,4.40
2022-10-13T10:07:24.145Z,3.80
2022-10-13T10:08:33.397Z,3.70
2022-10-13T10:09:24.117Z,3.40
2022-10-13T10:10:24.432Z,3.60
2022-10-13T10:11:24.112Z,3.30
2022-10-13T10:12:27.796Z,3.20
2022-10-13T10:13:24.077Z,3.50
2022-10-13T10:14:24.106Z,3.40
2022-10-13T10:15:24.008Z,3.60
2022-10-13T10:16:24.158Z,3.20
2022-10-13T10:17:24.045Z,3.60
2022-10-13T10:18:23.995Z,3.00
2022-10-13T10:19:23.908Z,3.00
2022-10-13T10:20:23.984Z,3.60
2022-10-13T10:21:24.001Z,3.70
2022-10-13T10:22:24.003Z,3.00
2022-10-13T10:23:23.947Z,3.80
2022-10-13T10:24:23.877Z,3.60
2022-10-13T10:25:23.891Z,3.60
2022-10-13T10:26:27.640Z,3.10
2022-10-13T10:27:23.933Z,3.30
2022-10-13T10:28:24.052Z,3.30
2022-10-13T10:29:23.896Z,4.30
2022-10-13T10:30:23.838Z,3.00
2022-10-13T10:31:23.828Z,3.60
2022-10-13T10:32:23.859Z,2.70
2022-10-13T10:33:23.852Z,3.30
2022-10-13T10:34:23.843Z,3.70
2022-10-13T10:35:23.803Z,3.50
2022-10-13T10:36:23.808Z,3.40
2022-10-13T10:37:25.382Z,3.90
2022-10-13T10:38:24.137Z,3.30
2022-10-13T10:39:23.760Z,3.70
2022-10-13T10:40:23.920Z,3.60
2022-10-13T10:41:23.802Z,3.30
2022-10-13T10:42:23.746Z,3.10
2022-10-13T10:43:23.751Z,4.00
2022-10-13T10:44:23.744Z,3.50
2022-10-13T10:45:23.770Z,3.20
2022-10-13T10:46:23.790Z,3.30
2022-10-13T10:47:23.691Z,3.30
2022-10-13T10:48:23.674Z,3.70
2022-10-13T10:49:23.625Z,3.60
2022-10-13T10:50:23.925Z,3.70
2022-10-13T10:51:23.665Z,4.20
2022-10-13T10:52:23.775Z,4.00
2022-10-13T10:53:23.557Z,3.60
2022-10-13T10:54:23.645Z,4.20
2022-10-13T10:55:23.567Z,3.20
2022-10-13T10:56:23.614Z,4.00
2022-10-13T10:57:23.779Z,2.80
2022-10-13T10:58:23.636Z,3.50
2022-10-13T10:59:23.561Z,3.10
2022-10-13T11:00:23.943Z,4.50
2022-10-13T11:01:23.552Z,3.30
2022-10-13T11:02:23.587Z,3.90
2022-10-13T11:03:23.501Z,3.80
2022-10-13T11:04:23.538Z,3.80
2022-10-13T11:05:23.508Z,3.70
2022-10-13T11:06:23.498Z,2.80
2022-10-13T11:07:23.451Z,3.30
2022-10-13T11:08:23.448Z,3.60
2022-10-13T11:09:23.489Z,3.10
2022-10-13T11:10:23.916Z,3.60
2022-10-13T11:11:26.737Z,3.00
2022-10-13T11:12:23.590Z,4.10
2022-10-13T11:13:23.448Z,3.40
2022-10-13T11:14:23.467Z,3.10
2022-10-13T11:15:23.437Z,3.00
2022-10-13T11:16:23.487Z,3.50
2022-10-13T11:17:23.684Z,3.90
2022-10-13T11:18:23.373Z,3.00
2022-10-13T11:19:23.335Z,3.20
2022-10-13T11:20:23.335Z,3.70
2022-10-13T11:21:23.306Z,4.10
2022-10-13T11:22:23.901Z,3.00
2022-10-13T11:23:23.379Z,3.40
2022-10-13T11:24:23.603Z,3.50
2022-10-13T11:25:23.234Z,3.60
2022-10-13T11:26:23.241Z,3.10
2022-10-13T11:27:23.335Z,2.70
2022-10-13T11:28:23.560Z,3.60
2022-10-13T11:29:23.197Z,3.30
2022-10-13T11:30:23.321Z,3.50
2022-10-13T11:31:23.244Z,3.50
2022-10-13T11:32:23.190Z,3.00
2022-10-13T11:33:23.172Z,3.40
2022-10-13T11:34:23.224Z,3.60
2022-10-13T11:35:23.168Z,3.20
2022-10-13T11:36:23.203Z,2.90
2022-10-13T11:37:23.478Z,3.50
2022-10-13T11:38:23.183Z,3.30
2022-10-13T11:39:23.236Z,3.40
2022-10-13T11:40:23.191Z,2.60
2022-10-13T11:41:23.051Z,2.80
2022-10-13T11:42:23.424Z,3.90
2022-10-13T11:43:23.113Z,2.50
2022-10-13T11:44:23.168Z,3.00
2022-10-13T11:45:23.096Z,3.20
2022-10-13T11:46:23.213Z,3.60
2022-10-13T11:47:23.438Z,3.30
2022-10-13T11:48:23.082Z,3.40
2022-10-13T11:49:23.285Z,3.80
2022-10-13T11:50:23.015Z,2.40
2022-10-13T11:51:23.014Z,2.90
2022-10-13T11:52:23.383Z,3.00
2022-10-13T11:53:22.961Z,3.30
2022-10-13T11:54:23.026Z,2.80
2022-10-13T11:55:22.949Z,2.40
2022-10-13T11:56:23.000Z,2.90
2022-10-13T11:57:23.088Z,3.60
2022-10-13T11:58:22.925Z,3.10
2022-10-13T11:59:23.028Z,2.80
2022-10-13T12:00:22.952Z,3.50
2022-10-13T12:01:23.166Z,3.00
2022-10-13T12:02:23.177Z,2.90
2022-10-13T12:03:22.877Z,2.80
2022-10-13T12:04:22.898Z,2.60
2022-10-13T12:05:22.874Z,2.20
2022-10-13T12:06:22.812Z,2.70
2022-10-13T12:07:22.900Z,2.80
2022-10-13T12:08:23.161Z,2.70
2022-10-13T12:09:22.866Z,2.70
2022-10-13T12:10:22.965Z,2.80
2022-10-13T12:11:22.780Z,3.00
2022-10-13T12:12:23.147Z,2.80
2022-10-13T12:13:22.763Z,2.80
2022-10-13T12:14:22.780Z,2.70
2022-10-13T12:15:23.087Z,2.20
2022-10-13T12:16:22.829Z,2.70
2022-10-13T12:17:23.764Z,3.20
2022-10-13T12:18:22.707Z,2.70
2022-10-13T12:19:22.804Z,2.70
2022-10-13T12:20:22.690Z,2.20
2022-10-13T12:21:22.683Z,2.70
2022-10-13T12:22:23.054Z,2.20
2022-10-13T12:23:22.644Z,2.10
2022-10-13T12:24:22.635Z,2.60
2022-10-13T12:25:22.720Z,2.50
2022-10-13T12:26:22.565Z,2.60
2022-10-13T12:27:22.963Z,2.60
2022-10-13T12:28:22.739Z,2.20
2022-10-13T12:29:22.877Z,2.20
2022-10-13T12:30:22.635Z,2.20
2022-10-13T12:31:22.577Z,2.50
2022-10-13T12:32:22.587Z,2.30
2022-10-13T12:33:22.624Z,2.80
2022-10-13T12:34:22.565Z,2.50
2022-10-13T12:35:22.568Z,2.90
2022-10-13T12:36:22.821Z,1.90
2022-10-13T12:37:22.948Z,2.80
2022-10-13T12:38:22.581Z,2.70
2022-10-13T12:39:22.486Z,1.90
2022-10-13T12:40:22.513Z,2.10
2022-10-13T12:41:22.442Z,2.20
2022-10-13T12:42:22.508Z,1.90
2022-10-13T12:43:22.547Z,2.40
2022-10-13T12:44:22.429Z,2.10
2022-10-13T12:45:22.427Z,2.50
2022-10-13T12:46:22.427Z,2.20
2022-10-13T12:47:22.488Z,2.80
2022-10-13T12:48:22.403Z,2.50
2022-10-13T12:49:22.495Z,2.30
2022-10-13T12:50:22.395Z,2.20
2022-10-13T12:51:22.418Z,2.50
2022-10-13T12:52:22.655Z,2.20
2022-10-13T12:53:22.336Z,3.00
2022-10-13T12:54:22.352Z,2.10
2022-10-13T12:55:22.627Z,2.10
2022-10-13T12:56:22.283Z,1.80
2022-10-13T12:57:22.300Z,2.00
2022-10-13T12:58:22.400Z,2.60
2022-10-13T12:59:22.384Z,2.50
2022-10-13T13:00:22.214Z,2.00
2022-10-13T13:01:22.386Z,2.20
2022-10-13T13:02:22.752Z,2.60
2022-10-13T13:03:22.203Z,2.60
2022-10-13T13:04:22.350Z,2.30
2022-10-13T13:05:22.289Z,2.10
2022-10-13T13:06:22.191Z,1.80
2022-10-13T13:07:22.151Z,2.30
2022-10-13T13:08:22.206Z,1.70
2022-10-13T13:09:22.520Z,2.20
2022-10-13T13:10:22.231Z,2.20
2022-10-13T13:11:22.243Z,2.30
2022-10-13T13:12:22.646Z,2.50
2022-10-13T13:13:22.234Z,2.50
2022-10-13T13:14:22.183Z,2.40
2022-10-13T13:15:22.115Z,2.20
2022-10-13T13:16:22.548Z,2.20
2022-10-13T13:18:22.129Z,2.60
2022-10-13T13:19:22.056Z,2.90